createdAt,value
2017-09-06T00:02:06.841Z,99.90
2017-09-06T00:04:35.517Z,99.90
2017-09-06T00:07:03.966Z,99.90
2017-09-06T00:09:32.367Z,99.90
2017-09-06T00:12:01.748Z,99.90
2017-09-06T00:14:30.194Z,99.90
2017-09-06T00:16:58.645Z,99.90
2017-09-06T00:19:27.074Z,99.90
2017-09-06T00:21:55.560Z,99.90
2017-09-06T00:24:24.139Z,99.90
2017-09-06T00:26:52.600Z,99.90
2017-09-06T00:29:21.091Z,99.90
2017-09-06T00:31:49.524Z,99.90
2017-09-06T00:34:17.991Z,99.90
2017-09-06T00:36:46.785Z,99.90
2017-09-06T00:39:15.181Z,99.90
2017-09-06T00:41:43.610Z,99.90
2017-09-06T00:44:12.215Z,99.90
2017-09-06T00:46:40.659Z,99.90
2017-09-06T00:49:09.186Z,99.90
2017-09-06T00:51:38.416Z,99.90
2017-09-06T00:54:06.898Z,99.90
2017-09-06T00:56:35.386Z,99.90
2017-09-06T00:59:03.894Z,99.90
2017-09-06T01:01:33.170Z,99.90
2017-09-06T01:04:01.658Z,99.90
2017-09-06T01:06:30.359Z,99.90
2017-09-06T01:08:58.814Z,99.90
2017-09-06T01:11:27.985Z,99.90
2017-09-06T01:13:56.619Z,99.90
2017-09-06T01:16:25.062Z,99.90
2017-09-06T01:18:53.479Z,99.90
2017-09-06T01:21:22.209Z,99.90
2017-09-06T01:23:50.664Z,99.90
2017-09-06T01:26:19.123Z,99.90
2017-09-06T01:28:47.551Z,99.90
2017-09-06T01:31:15.976Z,99.90
2017-09-06T01:33:44.436Z,99.90
2017-09-06T01:36:13.021Z,99.90
2017-09-06T01:38:41.473Z,99.90
2017-09-06T01:41:09.910Z,99.90
2017-09-06T01:43:38.624Z,99.90
2017-09-06T01:46:07.799Z,99.90
2017-09-06T01:48:36.208Z,99.90
2017-09-06T01:51:04.725Z,99.90
2017-09-06T01:53:33.152Z,99.90
2017-09-06T01:56:01.664Z,99.90
2017-09-06T01:58:30.121Z,99.90
2017-09-06T02:00:59.297Z,99.90
2017-09-06T02:03:27.732Z,99.90
2017-09-06T02:05:56.450Z,99.90
2017-09-06T02:08:25.231Z,99.90
2017-09-06T02:10:53.612Z,99.90
2017-09-06T02:13:22.199Z,99.90
2017-09-06T02:15:50.646Z,99.90
2017-09-06T02:18:19.065Z,99.90
2017-09-06T02:20:48.008Z,99.90
2017-09-06T02:23:16.421Z,99.90
2017-09-06T02:25:44.827Z,99.90
2017-09-06T02:28:13.562Z,99.90
2017-09-06T02:30:41.950Z,99.90
2017-09-06T02:33:10.359Z,99.90
2017-09-06T02:35:38.945Z,99.90
2017-09-06T02:38:07.363Z,99.90
2017-09-06T02:40:36.573Z,99.90
2017-09-06T02:43:05.210Z,99.90
2017-09-06T02:45:33.663Z,99.90
2017-09-06T02:48:02.073Z,99.90
2017-09-06T02:50:30.774Z,99.90
2017-09-06T02:53:00.093Z,99.90
2017-09-06T02:55:28.531Z,99.90
2017-09-06T02:57:56.993Z,99.90
2017-09-06T03:00:25.387Z,99.90
2017-09-06T03:02:53.768Z,99.90
2017-09-06T03:05:22.349Z,99.90
2017-09-06T03:07:50.778Z,99.90
2017-09-06T03:10:19.797Z,99.90
2017-09-06T03:12:48.447Z,99.90
2017-09-06T03:15:16.975Z,99.90
2017-09-06T03:17:45.492Z,99.90
2017-09-06T03:20:13.982Z,99.90
2017-09-06T03:22:43.183Z,99.90
2017-09-06T03:25:11.634Z,99.90
2017-09-06T03:27:40.348Z,99.90
2017-09-06T03:30:08.833Z,99.90
2017-09-06T03:32:37.261Z,99.90
2017-09-06T03:35:05.880Z,99.90
2017-09-06T03:37:34.290Z,99.90
2017-09-06T03:40:02.713Z,99.90
2017-09-06T03:42:31.563Z,99.90
2017-09-06T03:45:00.920Z,99.90
2017-09-06T03:47:30.376Z,99.90
2017-09-06T03:49:58.953Z,99.90
2017-09-06T03:52:29.276Z,99.90
2017-09-06T03:54:57.845Z,99.90
2017-09-06T03:57:26.527Z,99.90
2017-09-06T03:59:54.942Z,99.90
2017-09-06T04:02:23.625Z,99.90
2017-09-06T04:04:52.340Z,99.90
2017-09-06T04:07:21.042Z,99.90
2017-09-06T04:09:49.637Z,99.90
2017-09-06T04:12:19.467Z,99.90
2017-09-06T04:14:47.890Z,99.90
2017-09-06T04:17:16.321Z,99.90
2017-09-06T04:19:44.865Z,99.90
2017-09-06T04:22:13.393Z,99.90
2017-09-06T04:24:41.848Z,99.90
2017-09-06T04:27:10.483Z,99.90
2017-09-06T04:29:38.926Z,99.90
2017-09-06T04:32:07.807Z,99.90
2017-09-06T04:34:37.091Z,99.90
2017-09-06T04:37:05.547Z,99.90
2017-09-06T04:39:34.817Z,99.90
2017-09-06T04:42:04.922Z,99.90
2017-09-06T04:44:33.450Z,99.90
2017-09-06T04:47:01.876Z,99.90
2017-09-06T04:49:30.418Z,99.90
2017-09-06T04:51:58.932Z,99.90
2017-09-06T04:54:27.429Z,99.90
2017-09-06T04:56:59.092Z,99.90
2017-09-06T04:59:28.380Z,99.90
2017-09-06T05:01:56.824Z,99.90
2017-09-06T05:04:25.549Z,99.90
2017-09-06T05:06:53.989Z,99.90
2017-09-06T05:09:22.563Z,99.90
2017-09-06T05:11:51.284Z,99.90
2017-09-06T05:14:20.084Z,99.90
2017-09-06T05:16:48.680Z,99.90
2017-09-06T05:19:17.210Z,99.90
2017-09-06T05:21:47.449Z,99.90
2017-09-06T05:24:15.990Z,99.90
2017-09-06T05:26:44.931Z,99.90
2017-09-06T05:29:13.411Z,99.90
2017-09-06T05:31:41.900Z,99.90
2017-09-06T05:34:10.831Z,99.90
2017-09-06T05:36:39.276Z,99.90
2017-09-06T05:39:07.953Z,99.90
2017-09-06T05:41:36.578Z,99.90
2017-09-06T05:44:05.024Z,99.90
2017-09-06T05:46:33.806Z,99.90
2017-09-06T05:49:03.174Z,99.90
2017-09-06T05:51:31.655Z,99.90
2017-09-06T05:54:00.146Z,99.90
2017-09-06T05:56:29.128Z,99.90
2017-09-06T05:58:57.879Z,99.90
2017-09-06T06:01:27.517Z,99.90
2017-09-06T06:03:56.238Z,99.90
2017-09-06T06:06:24.930Z,99.90
2017-09-06T06:08:54.311Z,99.90
2017-09-06T06:11:22.890Z,99.90
2017-09-06T06:13:51.747Z,99.90
2017-09-06T06:16:22.145Z,99.90
2017-09-06T06:18:50.863Z,99.90
2017-09-06T06:21:19.348Z,99.90
2017-09-06T06:23:47.828Z,99.90
2017-09-06T06:26:16.341Z,99.90
2017-09-06T06:28:44.797Z,99.90
2017-09-06T06:31:13.228Z,99.90
2017-09-06T06:33:41.752Z,99.90
2017-09-06T06:36:12.091Z,99.90
2017-09-06T06:38:40.642Z,99.90
2017-09-06T06:41:09.335Z,99.90
2017-09-06T06:43:37.891Z,99.90
2017-09-06T06:46:06.374Z,99.90
2017-09-06T06:48:35.121Z,99.90
2017-09-06T06:51:03.978Z,99.70
2017-09-06T06:53:32.491Z,99.90
2017-09-06T06:56:01.265Z,99.50
2017-09-06T06:58:29.684Z,99.70
2017-09-06T07:00:58.593Z,99.90
2017-09-06T07:03:27.018Z,99.90
2017-09-06T07:05:55.462Z,99.90
2017-09-06T07:08:23.992Z,99.90
2017-09-06T07:10:52.660Z,99.90
2017-09-06T07:13:21.259Z,99.90
2017-09-06T07:15:49.857Z,99.90
2017-09-06T07:18:18.826Z,99.90
2017-09-06T07:20:47.274Z,99.90
2017-09-06T07:23:15.727Z,99.90
2017-09-06T07:25:44.448Z,99.20
2017-09-06T07:28:13.141Z,98.70
2017-09-06T07:30:41.577Z,98.80
2017-09-06T07:33:10.347Z,98.70
2017-09-06T07:35:39.206Z,98.60
2017-09-06T07:38:07.791Z,98.80
2017-09-06T07:40:36.414Z,98.20
2017-09-06T07:43:05.030Z,97.60
2017-09-06T07:45:34.057Z,97.70
2017-09-06T07:48:02.947Z,97.40
2017-09-06T07:50:31.483Z,97.10
2017-09-06T07:53:00.024Z,96.70
2017-09-06T07:55:28.761Z,96.90
2017-09-06T07:57:57.194Z,97.30
2017-09-06T08:00:26.378Z,98.70
2017-09-06T08:02:54.897Z,98.60
2017-09-06T08:05:23.374Z,99.30
2017-09-06T08:07:57.755Z,99.60
2017-09-06T08:10:26.277Z,99.90
2017-09-06T08:12:55.452Z,99.90
2017-09-06T08:15:24.583Z,99.90
2017-09-06T08:17:52.992Z,99.90
2017-09-06T08:20:21.627Z,99.90
2017-09-06T08:22:50.519Z,99.90
2017-09-06T08:25:19.049Z,99.90
2017-09-06T08:27:48.312Z,99.90
2017-09-06T08:30:17.637Z,99.90
2017-09-06T08:32:46.121Z,99.90
2017-09-06T08:35:14.607Z,99.90
2017-09-06T08:37:43.657Z,99.90
2017-09-06T08:40:13.467Z,99.90
2017-09-06T08:42:42.532Z,99.90
2017-09-06T08:45:11.134Z,99.90
2017-09-06T08:47:40.426Z,99.30
2017-09-06T08:50:08.838Z,97.90
2017-09-06T08:52:37.301Z,96.70
2017-09-06T08:55:05.759Z,95.50
2017-09-06T08:57:34.166Z,94.80
2017-09-06T09:00:02.732Z,94.70
2017-09-06T09:02:31.562Z,94.50
2017-09-06T09:05:00.045Z,94.30
2017-09-06T09:07:28.775Z,94.30
2017-09-06T09:09:57.197Z,94.40
2017-09-06T09:12:26.003Z,95.00
2017-09-06T09:14:55.079Z,95.20
2017-09-06T09:17:23.546Z,96.10
2017-09-06T09:19:52.961Z,96.10
2017-09-06T09:22:21.851Z,96.00
2017-09-06T09:24:50.358Z,95.00
2017-09-06T09:27:18.967Z,94.60
2017-09-06T09:29:49.671Z,94.50
2017-09-06T09:32:18.085Z,95.10
2017-09-06T09:34:47.087Z,95.10
2017-09-06T09:37:15.898Z,94.00
2017-09-06T09:39:44.423Z,93.80
2017-09-06T09:42:12.887Z,94.70
2017-09-06T09:44:41.748Z,95.90
2017-09-06T09:47:10.241Z,95.60
2017-09-06T09:49:38.647Z,95.30
2017-09-06T09:52:07.179Z,92.90
2017-09-06T09:54:35.602Z,92.90
2017-09-06T09:57:04.139Z,92.10
2017-09-06T09:59:33.117Z,92.40
2017-09-06T10:02:01.558Z,92.00
2017-09-06T10:04:34.171Z,92.00
2017-09-06T10:07:04.585Z,92.30
2017-09-06T10:09:34.668Z,91.60
2017-09-06T10:12:04.415Z,91.60
2017-09-06T10:14:33.008Z,91.10
2017-09-06T10:17:01.489Z,92.00
2017-09-06T10:19:30.084Z,91.70
2017-09-06T10:21:58.983Z,90.70
2017-09-06T10:24:28.383Z,90.60
2017-09-06T10:26:57.785Z,90.60
2017-09-06T10:29:27.060Z,90.00
2017-09-06T10:31:56.043Z,90.40
2017-09-06T10:34:25.417Z,90.30
2017-09-06T10:36:54.700Z,90.40
2017-09-06T10:39:23.142Z,90.50
2017-09-06T10:41:51.943Z,90.70
2017-09-06T10:44:21.527Z,90.30
2017-09-06T10:46:49.978Z,90.30
2017-09-06T10:49:21.068Z,90.40
2017-09-06T10:51:49.618Z,90.60
2017-09-06T10:54:18.215Z,90.00
2017-09-06T10:56:47.011Z,88.50
2017-09-06T10:59:15.450Z,89.00
2017-09-06T11:01:47.003Z,88.10
2017-09-06T11:04:15.824Z,88.60
2017-09-06T11:06:45.198Z,88.20
2017-09-06T11:09:14.439Z,88.00
2017-09-06T11:11:43.054Z,87.00
2017-09-06T11:14:12.456Z,84.50
2017-09-06T11:16:41.175Z,82.90
2017-09-06T11:19:10.962Z,82.20
2017-09-06T11:21:39.455Z,82.30
2017-09-06T11:24:11.253Z,80.50
2017-09-06T11:26:39.946Z,78.10
2017-09-06T11:29:09.430Z,78.70
2017-09-06T11:31:38.868Z,77.80
2017-09-06T11:34:07.548Z,79.90
2017-09-06T11:36:36.878Z,82.70
2017-09-06T11:39:07.785Z,82.60
2017-09-06T11:41:37.433Z,83.00
2017-09-06T11:44:08.126Z,82.70
2017-09-06T11:46:39.184Z,79.70
2017-09-06T11:49:08.771Z,79.50
2017-09-06T11:51:38.449Z,77.70
2017-09-06T11:54:08.078Z,76.80
2017-09-06T11:56:36.736Z,77.40
2017-09-06T11:59:05.304Z,79.70
2017-09-06T12:01:35.128Z,82.30
2017-09-06T12:04:05.840Z,81.40
2017-09-06T12:06:35.600Z,83.20
2017-09-06T12:09:05.100Z,83.50
2017-09-06T12:11:34.012Z,85.10
2017-09-06T12:14:04.164Z,82.60
2017-09-06T12:16:37.318Z,82.60
2017-09-06T12:19:05.836Z,82.90
2017-09-06T12:21:34.358Z,80.80
2017-09-06T12:24:03.300Z,79.50
2017-09-06T12:26:32.276Z,76.60
2017-09-06T12:29:02.109Z,76.10
2017-09-06T12:31:30.693Z,76.90
2017-09-06T12:33:59.141Z,74.70
2017-09-06T12:36:28.386Z,73.00
2017-09-06T12:38:57.286Z,72.90
2017-09-06T12:41:25.858Z,75.00
2017-09-06T12:43:55.611Z,74.90
2017-09-06T12:46:24.981Z,72.40
2017-09-06T12:48:53.553Z,72.50
2017-09-06T12:51:22.000Z,73.40
2017-09-06T12:53:52.895Z,75.50
2017-09-06T12:56:21.936Z,77.20
2017-09-06T12:58:50.897Z,78.50
2017-09-06T13:01:21.322Z,81.40
2017-09-06T13:03:49.916Z,81.40
2017-09-06T13:06:19.213Z,82.10
2017-09-06T13:08:49.865Z,79.00
2017-09-06T13:11:18.964Z,78.90
2017-09-06T13:13:47.760Z,76.70
2017-09-06T13:16:16.804Z,75.20
2017-09-06T13:18:46.764Z,73.40
2017-09-06T13:21:16.484Z,71.30
2017-09-06T13:23:45.468Z,72.00
2017-09-06T13:26:17.577Z,73.30
2017-09-06T13:28:46.349Z,73.10
2017-09-06T13:31:15.422Z,75.10
2017-09-06T13:33:45.017Z,75.80
2017-09-06T13:36:16.057Z,77.20
2017-09-06T13:38:46.163Z,77.60
2017-09-06T13:41:14.860Z,77.60
2017-09-06T13:43:45.450Z,77.60
2017-09-06T13:46:13.936Z,78.20
2017-09-06T13:48:42.498Z,80.40
2017-09-06T13:51:12.221Z,80.80
2017-09-06T13:53:41.844Z,80.60
2017-09-06T13:56:11.085Z,78.90
2017-09-06T13:58:41.313Z,78.20
2017-09-06T14:01:09.851Z,77.70
2017-09-06T14:03:39.452Z,74.50
2017-09-06T14:06:08.255Z,74.30
2017-09-06T14:08:36.786Z,73.20
2017-09-06T14:11:06.022Z,69.10
2017-09-06T14:13:34.539Z,69.00
2017-09-06T14:16:03.096Z,70.70
2017-09-06T14:18:33.107Z,69.20
2017-09-06T14:21:01.961Z,68.40
2017-09-06T14:23:30.578Z,69.10
2017-09-06T14:26:00.021Z,70.10
2017-09-06T14:28:28.590Z,70.10
2017-09-06T14:30:57.186Z,71.40
2017-09-06T14:33:26.058Z,71.80
2017-09-06T14:35:55.512Z,72.00
2017-09-06T14:38:24.166Z,72.70
2017-09-06T14:40:53.934Z,71.60
2017-09-06T14:43:22.919Z,70.90
2017-09-06T14:48:27.154Z,71.30
2017-09-06T14:50:55.865Z,71.60
2017-09-06T14:53:25.453Z,70.70
2017-09-06T14:55:54.873Z,70.50
2017-09-06T14:58:23.408Z,69.80
2017-09-06T15:00:51.978Z,69.90
2017-09-06T15:03:21.099Z,71.10
2017-09-06T15:05:49.773Z,73.00
2017-09-06T15:08:18.425Z,74.10
2017-09-06T15:10:47.415Z,75.30
2017-09-06T15:13:16.846Z,74.50
2017-09-06T15:15:45.391Z,74.60
2017-09-06T15:18:14.724Z,75.20
2017-09-06T15:20:43.341Z,75.90
2017-09-06T15:23:11.914Z,76.00
2017-09-06T15:25:40.725Z,76.20
2017-09-06T15:28:10.082Z,77.60
2017-09-06T15:30:38.753Z,77.60
2017-09-06T15:33:07.574Z,78.70
2017-09-06T15:35:36.278Z,78.50
2017-09-06T15:38:05.597Z,78.00
2017-09-06T15:40:34.166Z,78.00
2017-09-06T15:43:02.714Z,76.90
2017-09-06T15:45:31.761Z,78.00
2017-09-06T15:48:00.597Z,77.10
2017-09-06T15:50:29.281Z,77.70
2017-09-06T15:52:58.218Z,78.00
2017-09-06T15:55:27.279Z,77.80
2017-09-06T15:57:57.000Z,76.80
2017-09-06T16:00:25.679Z,76.70
2017-09-06T16:02:54.389Z,76.90
2017-09-06T16:05:22.995Z,75.50
2017-09-06T16:07:51.591Z,76.90
2017-09-06T16:10:20.905Z,76.10
2017-09-06T16:12:49.439Z,76.00
2017-09-06T16:15:18.047Z,75.80
2017-09-06T16:17:46.834Z,74.70
2017-09-06T16:20:15.653Z,73.10
2017-09-06T16:22:45.258Z,72.80
2017-09-06T16:25:13.898Z,72.50
2017-09-06T16:27:42.491Z,73.80
2017-09-06T16:30:11.959Z,73.60
2017-09-06T16:32:40.665Z,73.80
2017-09-06T16:35:09.211Z,73.70
2017-09-06T16:37:37.877Z,74.50
2017-09-06T16:40:07.210Z,73.80
2017-09-06T16:42:35.811Z,74.40
2017-09-06T16:45:08.621Z,76.00
2017-09-06T16:47:37.275Z,76.00
2017-09-06T16:50:05.922Z,76.00
2017-09-06T16:52:34.399Z,76.40
2017-09-06T16:55:03.265Z,76.20
2017-09-06T16:57:31.764Z,76.70
2017-09-06T17:00:00.308Z,76.80
2017-09-06T17:02:29.089Z,77.30
2017-09-06T17:04:57.479Z,77.80
2017-09-06T17:07:25.908Z,78.10
2017-09-06T17:09:54.534Z,79.00
2017-09-06T17:12:23.092Z,79.00
2017-09-06T17:14:51.584Z,79.70
2017-09-06T17:17:20.323Z,79.80
2017-09-06T17:19:48.778Z,80.50
2017-09-06T17:22:17.495Z,81.00
2017-09-06T17:24:46.489Z,81.80
2017-09-06T17:27:14.937Z,81.40
2017-09-06T17:29:44.098Z,82.30
2017-09-06T17:32:12.826Z,82.30
2017-09-06T17:34:41.251Z,82.80
2017-09-06T17:37:10.310Z,83.20
2017-09-06T17:39:39.640Z,82.80
2017-09-06T17:42:08.255Z,83.00
2017-09-06T17:44:36.714Z,83.50
2017-09-06T17:47:05.529Z,83.60
2017-09-06T17:49:33.975Z,84.20
2017-09-06T17:52:03.387Z,84.40
2017-09-06T17:54:32.234Z,84.70
2017-09-06T17:57:00.657Z,85.00
2017-09-06T17:59:29.398Z,85.30
2017-09-06T18:01:57.983Z,85.60
2017-09-06T18:04:26.398Z,86.10
2017-09-06T18:06:55.975Z,87.10
2017-09-06T18:09:24.699Z,87.10
2017-09-06T18:11:53.262Z,87.30
2017-09-06T18:14:21.679Z,88.00
2017-09-06T18:16:50.472Z,89.10
2017-09-06T18:19:18.910Z,89.20
2017-09-06T18:21:47.380Z,89.90
2017-09-06T18:24:16.112Z,90.00
2017-09-06T18:26:44.653Z,90.60
2017-09-06T18:29:13.081Z,90.80
2017-09-06T18:31:42.261Z,90.80
2017-09-06T18:34:10.752Z,91.20
2017-09-06T18:36:39.286Z,91.10
2017-09-06T18:39:08.267Z,91.20
2017-09-06T18:41:37.115Z,91.00
2017-09-06T18:44:05.527Z,91.00
2017-09-06T18:46:34.080Z,90.90
2017-09-06T18:49:02.680Z,90.70
2017-09-06T18:51:31.081Z,90.50
2017-09-06T18:53:59.722Z,90.40
2017-09-06T18:56:28.169Z,90.70
2017-09-06T18:58:56.604Z,90.40
2017-09-06T19:01:25.901Z,90.20
2017-09-06T19:03:55.119Z,90.10
2017-09-06T19:06:23.515Z,90.10
2017-09-06T19:08:53.453Z,89.70
2017-09-06T19:11:23.072Z,89.50
2017-09-06T19:13:51.663Z,89.10
2017-09-06T19:16:20.257Z,88.20
2017-09-06T19:18:48.665Z,87.90
2017-09-06T19:21:17.082Z,87.40
2017-09-06T19:23:45.724Z,87.50
2017-09-06T19:26:15.145Z,87.60
2017-09-06T19:28:43.565Z,87.00
2017-09-06T19:31:12.404Z,85.40
2017-09-06T19:33:40.840Z,86.20
2017-09-06T19:36:09.262Z,86.50
2017-09-06T19:38:37.773Z,85.40
2017-09-06T19:41:06.218Z,85.30
2017-09-06T19:43:35.095Z,85.30
2017-09-06T19:46:03.623Z,85.50
2017-09-06T19:48:32.058Z,85.60
2017-09-06T19:51:00.545Z,84.40
2017-09-06T19:53:29.099Z,84.70
2017-09-06T19:55:57.562Z,84.40
2017-09-06T19:58:26.029Z,85.10
2017-09-06T20:00:54.892Z,85.20
2017-09-06T20:03:23.553Z,84.50
2017-09-06T20:05:51.991Z,85.00
2017-09-06T20:08:20.773Z,84.30
2017-09-06T20:10:49.226Z,84.80
2017-09-06T20:13:17.636Z,85.20
2017-09-06T20:15:46.101Z,85.50
2017-09-06T20:18:14.547Z,86.40
2017-09-06T20:20:42.978Z,87.10
2017-09-06T20:23:11.730Z,87.00
2017-09-06T20:25:40.216Z,87.70
2017-09-06T20:28:08.878Z,88.30
2017-09-06T20:30:37.535Z,87.60
2017-09-06T20:33:06.035Z,87.90
2017-09-06T20:35:34.541Z,88.40
2017-09-06T20:38:03.084Z,89.70
2017-09-06T20:40:31.578Z,89.70
2017-09-06T20:43:00.837Z,90.30
2017-09-06T20:45:29.920Z,90.20
2017-09-06T20:47:58.381Z,90.50
2017-09-06T20:50:26.799Z,90.80
2017-09-06T20:52:55.359Z,91.10
2017-09-06T20:55:23.775Z,91.20
2017-09-06T20:57:52.191Z,91.30
2017-09-06T21:00:20.614Z,91.70
2017-09-06T21:02:49.098Z,91.80
2017-09-06T21:05:17.865Z,91.80
2017-09-06T21:07:46.551Z,91.90
2017-09-06T21:10:15.064Z,92.30
2017-09-06T21:12:43.545Z,92.10
2017-09-06T21:15:12.011Z,92.30
2017-09-06T21:17:40.468Z,92.20
2017-09-06T21:20:08.881Z,92.20
2017-09-06T21:22:37.456Z,92.10
2017-09-06T21:25:05.880Z,92.50
2017-09-06T21:27:35.113Z,93.20
2017-09-06T21:30:04.089Z,93.20
2017-09-06T21:32:33.312Z,93.30
2017-09-06T21:35:01.786Z,93.30
2017-09-06T21:37:30.678Z,93.20
2017-09-06T21:39:59.112Z,93.30
2017-09-06T21:42:28.290Z,93.00
2017-09-06T21:44:56.854Z,93.00
2017-09-06T21:47:25.381Z,93.50
2017-09-06T21:49:54.379Z,93.30
2017-09-06T21:52:23.746Z,93.00
2017-09-06T21:54:52.256Z,93.00
2017-09-06T21:57:21.431Z,92.70
2017-09-06T21:59:49.886Z,92.70
2017-09-06T22:02:18.299Z,92.90
2017-09-06T22:04:46.684Z,92.90
2017-09-06T22:07:16.236Z,92.50
2017-09-06T22:09:45.497Z,92.30
2017-09-06T22:12:14.701Z,92.00
2017-09-06T22:14:44.049Z,92.10
2017-09-06T22:17:12.501Z,92.10
2017-09-06T22:19:40.968Z,91.90
2017-09-06T22:22:10.452Z,91.90
2017-09-06T22:24:38.869Z,91.90
2017-09-06T22:27:07.329Z,92.10
2017-09-06T22:29:36.554Z,92.50
2017-09-06T22:32:05.254Z,92.50
2017-09-06T22:34:33.665Z,92.70
2017-09-06T22:37:02.485Z,92.20
2017-09-06T22:39:30.906Z,93.00
2017-09-06T22:41:59.331Z,92.60
2017-09-06T22:44:28.118Z,92.30
2017-09-06T22:46:57.314Z,92.60
2017-09-06T22:49:26.160Z,92.60
2017-09-06T22:51:54.951Z,92.90
2017-09-06T22:54:23.322Z,93.90
2017-09-06T22:56:51.744Z,93.70
2017-09-06T22:59:20.155Z,93.80
2017-09-06T23:01:48.515Z,94.00
2017-09-06T23:04:17.676Z,93.80
2017-09-06T23:06:46.277Z,93.80
2017-09-06T23:09:14.663Z,93.80
2017-09-06T23:11:43.046Z,94.10
2017-09-06T23:14:11.551Z,94.10
2017-09-06T23:16:39.929Z,94.10
2017-09-06T23:19:08.308Z,94.00
2017-09-06T23:21:36.892Z,94.20
2017-09-06T23:24:05.297Z,94.10
2017-09-06T23:26:33.687Z,93.50
2017-09-06T23:29:02.190Z,93.50
2017-09-06T23:31:30.575Z,93.60
2017-09-06T23:33:59.347Z,93.50
2017-09-06T23:36:28.065Z,93.50
2017-09-06T23:38:57.216Z,93.70
2017-09-06T23:41:25.653Z,93.60
2017-09-06T23:43:54.298Z,93.90
2017-09-06T23:46:22.888Z,93.90
2017-09-06T23:48:51.337Z,93.80
2017-09-06T23:51:19.975Z,94.00
2017-09-06T23:53:48.421Z,93.90
2017-09-06T23:56:16.962Z,93.90
2017-09-06T23:58:45.557Z,93.80
